createdAt,value
2018-07-20T00:00:12.617Z,6.40
2018-07-20T00:02:16.111Z,6.30
2018-07-20T00:04:19.681Z,6.80
2018-07-20T00:06:23.194Z,6.13
2018-07-20T00:08:26.784Z,6.43
2018-07-20T00:10:30.243Z,7.03
2018-07-20T00:12:33.775Z,7.23
2018-07-20T00:14:37.258Z,7.70
2018-07-20T00:16:40.789Z,7.50
2018-07-20T00:18:44.487Z,6.60
2018-07-20T00:20:48.000Z,7.47
2018-07-20T00:22:51.534Z,8.00
2018-07-20T00:24:55.042Z,7.17
2018-07-20T00:26:58.493Z,7.10
2018-07-20T00:29:02.005Z,7.50
2018-07-20T00:31:05.540Z,6.87
2018-07-20T00:33:09.129Z,7.40
2018-07-20T00:35:12.638Z,8.13
2018-07-20T00:37:16.123Z,7.50
2018-07-20T00:39:19.643Z,7.70
2018-07-20T00:41:23.215Z,7.73
2018-07-20T00:43:26.760Z,7.90
2018-07-20T00:45:30.257Z,7.27
2018-07-20T00:47:33.771Z,7.33
2018-07-20T00:49:37.270Z,7.10
2018-07-20T00:51:40.774Z,6.20
2018-07-20T00:53:44.323Z,6.07
2018-07-20T00:55:47.857Z,6.80
2018-07-20T00:57:51.415Z,6.80
2018-07-20T00:59:55.081Z,7.07
2018-07-20T01:01:58.567Z,7.27
2018-07-20T01:04:02.091Z,7.20
2018-07-20T01:06:06.438Z,7.27
2018-07-20T01:08:09.954Z,7.13
2018-07-20T01:10:13.449Z,7.33
2018-07-20T01:12:17.056Z,6.97
2018-07-20T01:14:20.709Z,7.33
2018-07-20T01:16:24.243Z,7.93
2018-07-20T01:18:27.748Z,7.63
2018-07-20T01:20:31.265Z,8.30
2018-07-20T01:22:34.738Z,7.93
2018-07-20T01:24:38.243Z,8.73
2018-07-20T01:26:41.745Z,7.33
2018-07-20T01:28:45.259Z,9.13
2018-07-20T01:30:48.781Z,9.30
2018-07-20T01:32:52.339Z,8.67
2018-07-20T01:34:55.845Z,8.73
2018-07-20T01:36:59.321Z,8.60
2018-07-20T01:39:02.864Z,9.30
2018-07-20T01:41:06.407Z,9.23
2018-07-20T01:43:10.296Z,8.77
2018-07-20T01:45:13.808Z,8.90
2018-07-20T01:47:17.516Z,9.13
2018-07-20T01:49:21.041Z,9.50
2018-07-20T01:51:24.598Z,8.90
2018-07-20T01:53:28.102Z,8.97
2018-07-20T01:55:31.629Z,8.83
2018-07-20T01:57:35.129Z,7.70
2018-07-20T01:59:38.749Z,8.37
2018-07-20T02:01:42.327Z,8.43
2018-07-20T02:03:45.832Z,8.83
2018-07-20T02:05:49.383Z,7.67
2018-07-20T02:07:52.871Z,8.53
2018-07-20T02:09:56.407Z,8.93
2018-07-20T02:11:59.955Z,8.47
2018-07-20T02:14:03.477Z,9.47
2018-07-20T02:16:07.373Z,8.83
2018-07-20T02:18:10.858Z,8.47
2018-07-20T02:20:14.440Z,8.63
2018-07-20T02:22:17.934Z,8.47
2018-07-20T02:24:21.551Z,9.10
2018-07-20T02:26:25.107Z,9.30
2018-07-20T02:28:28.711Z,8.40
2018-07-20T02:30:32.205Z,8.97
2018-07-20T02:32:35.772Z,8.03
2018-07-20T02:34:39.241Z,9.00
2018-07-20T02:36:42.771Z,8.73
2018-07-20T02:38:46.330Z,9.57
2018-07-20T02:40:49.919Z,8.43
2018-07-20T02:42:54.025Z,8.63
2018-07-20T02:44:57.673Z,8.97
2018-07-20T02:47:01.192Z,8.97
2018-07-20T02:49:04.770Z,8.70
2018-07-20T02:51:08.352Z,8.60
2018-07-20T02:53:11.884Z,7.80
2018-07-20T02:55:15.417Z,7.83
2018-07-20T02:57:18.974Z,8.20
2018-07-20T02:59:22.547Z,9.20
2018-07-20T03:01:26.064Z,8.17
2018-07-20T03:03:29.529Z,8.33
2018-07-20T03:05:33.053Z,8.93
2018-07-20T03:07:36.568Z,9.50
2018-07-20T03:09:40.117Z,9.00
2018-07-20T03:11:44.563Z,8.67
2018-07-20T03:13:48.228Z,9.27
2018-07-20T03:15:51.725Z,9.70
2018-07-20T03:17:55.252Z,8.20
2018-07-20T03:19:58.881Z,8.87
2018-07-20T03:22:02.448Z,9.00
2018-07-20T03:24:06.302Z,9.27
2018-07-20T03:26:09.884Z,9.77
2018-07-20T03:28:13.488Z,8.63
2018-07-20T03:30:17.220Z,9.10
2018-07-20T03:32:20.735Z,9.23
2018-07-20T03:34:24.202Z,9.70
2018-07-20T03:36:27.761Z,8.90
2018-07-20T03:38:31.306Z,8.40
2018-07-20T03:40:34.820Z,8.30
2018-07-20T03:42:38.427Z,8.80
2018-07-20T03:44:42.089Z,8.27
2018-07-20T03:46:46.021Z,9.03
2018-07-20T03:48:49.530Z,9.00
2018-07-20T03:50:53.044Z,8.63
2018-07-20T03:52:56.576Z,9.43
2018-07-20T03:55:00.147Z,9.43
2018-07-20T03:57:03.716Z,9.67
2018-07-20T03:59:07.278Z,9.77
2018-07-20T04:01:11.192Z,9.93
2018-07-20T04:03:14.737Z,9.13
2018-07-20T04:05:18.210Z,9.10
2018-07-20T04:07:21.731Z,9.77
2018-07-20T04:09:25.264Z,9.53
2018-07-20T04:11:28.813Z,9.07
2018-07-20T04:13:32.383Z,10.63
2018-07-20T04:15:35.941Z,9.60
2018-07-20T04:17:42.963Z,9.43
2018-07-20T04:19:46.476Z,9.13
2018-07-20T04:21:49.996Z,8.73
2018-07-20T04:23:53.541Z,8.77
2018-07-20T04:25:57.195Z,8.53
2018-07-20T04:28:00.747Z,8.97
2018-07-20T04:30:06.779Z,9.60
2018-07-20T04:32:10.536Z,8.13
2018-07-20T04:34:14.098Z,8.80
2018-07-20T04:36:17.688Z,9.17
2018-07-20T04:38:21.395Z,9.10
2018-07-20T04:40:26.586Z,8.40
2018-07-20T04:42:30.123Z,9.17
2018-07-20T04:44:33.707Z,8.50
2018-07-20T04:46:37.892Z,9.37
2018-07-20T04:48:41.539Z,9.13
2018-07-20T04:50:45.044Z,9.00
2018-07-20T04:52:48.990Z,9.27
2018-07-20T04:54:52.549Z,8.90
2018-07-20T04:56:56.492Z,9.60
2018-07-20T04:59:00.480Z,9.67
2018-07-20T05:01:04.056Z,9.00
2018-07-20T05:03:08.149Z,9.10
2018-07-20T05:05:11.756Z,8.50
2018-07-20T05:07:15.424Z,8.87
2018-07-20T05:09:26.192Z,9.33
2018-07-20T05:11:29.835Z,8.67
2018-07-20T05:13:33.937Z,9.33
2018-07-20T05:15:37.551Z,8.23
2018-07-20T05:17:41.127Z,8.47
2018-07-20T05:19:44.779Z,8.77
2018-07-20T05:21:48.690Z,8.60
2018-07-20T05:23:52.456Z,7.73
2018-07-20T05:25:56.071Z,7.87
2018-07-20T05:27:59.684Z,7.80
2018-07-20T05:30:06.544Z,7.43
2018-07-20T05:32:10.166Z,8.20
2018-07-20T05:34:13.863Z,7.57
2018-07-20T05:36:17.448Z,8.07
2018-07-20T05:38:21.088Z,8.07
2018-07-20T05:40:24.731Z,8.07
2018-07-20T05:42:28.717Z,7.23
2018-07-20T05:44:32.260Z,8.30
2018-07-20T05:46:36.160Z,8.00
2018-07-20T05:48:40.037Z,7.70
2018-07-20T05:50:43.731Z,7.73
2018-07-20T05:52:47.491Z,7.67
2018-07-20T05:54:51.146Z,7.73
2018-07-20T05:56:54.773Z,7.37
2018-07-20T05:58:58.429Z,7.60
2018-07-20T06:01:02.167Z,6.67
2018-07-20T06:03:06.096Z,6.87
2018-07-20T06:05:09.835Z,6.43
2018-07-20T06:07:13.452Z,6.00
2018-07-20T06:09:17.676Z,6.07
2018-07-20T06:11:21.233Z,5.83
2018-07-20T06:13:24.958Z,5.77
2018-07-20T06:15:28.756Z,6.07
2018-07-20T06:17:32.427Z,5.83
2018-07-20T06:19:36.365Z,5.37
2018-07-20T06:21:40.715Z,5.67
2018-07-20T06:23:44.731Z,5.47
2018-07-20T06:25:48.719Z,5.20
2018-07-20T06:27:52.495Z,5.90
2018-07-20T06:29:56.029Z,5.17
2018-07-20T06:31:59.665Z,5.80
2018-07-20T06:34:03.300Z,4.93
2018-07-20T06:36:07.254Z,5.37
2018-07-20T06:38:10.905Z,5.40
2018-07-20T06:40:14.925Z,5.60
2018-07-20T06:42:18.838Z,5.17
2018-07-20T06:44:24.019Z,5.53
2018-07-20T06:46:27.699Z,5.00
2018-07-20T06:48:31.555Z,5.30
2018-07-20T06:50:35.240Z,5.10
2018-07-20T06:52:38.986Z,5.27
2018-07-20T06:54:42.587Z,4.93
2018-07-20T06:56:46.274Z,5.73
2018-07-20T06:58:49.970Z,5.13
2018-07-20T07:00:53.548Z,5.80
2018-07-20T07:02:57.244Z,5.80
2018-07-20T07:05:00.853Z,5.83
2018-07-20T07:07:04.783Z,6.00
2018-07-20T07:09:09.715Z,5.80
2018-07-20T07:11:13.793Z,5.90
2018-07-20T07:13:17.342Z,5.47
2018-07-20T07:15:21.417Z,5.60
2018-07-20T07:17:25.051Z,5.90
2018-07-20T07:19:28.730Z,5.60
2018-07-20T07:21:32.424Z,5.67
2018-07-20T07:23:36.418Z,6.13
2018-07-20T07:25:40.103Z,5.80
2018-07-20T07:27:44.506Z,5.73
2018-07-20T07:29:48.123Z,4.77
2018-07-20T07:31:51.850Z,6.97
2018-07-20T07:33:55.562Z,5.30
2018-07-20T07:36:13.749Z,5.43
2018-07-20T07:38:24.839Z,5.67
2018-07-20T07:40:32.890Z,5.37
2018-07-20T07:42:39.651Z,6.20
2018-07-20T07:44:45.222Z,5.63
2018-07-20T07:46:48.961Z,5.83
2018-07-20T07:48:52.663Z,5.47
2018-07-20T07:50:56.220Z,5.17
2018-07-20T07:52:59.815Z,5.13
2018-07-20T07:55:03.544Z,4.97
2018-07-20T07:57:07.282Z,5.63
2018-07-20T07:59:11.616Z,5.33
2018-07-20T08:01:15.561Z,5.27
2018-07-20T08:03:19.169Z,5.10
2018-07-20T08:05:23.033Z,5.10
2018-07-20T08:07:26.723Z,5.33
2018-07-20T08:09:30.384Z,5.00
2018-07-20T08:11:34.061Z,5.30
2018-07-20T08:13:37.710Z,4.40
2018-07-20T08:15:41.316Z,4.73
2018-07-20T08:17:45.081Z,4.50
2018-07-20T08:19:49.117Z,4.63
2018-07-20T08:21:52.895Z,4.50
2018-07-20T08:23:56.744Z,5.23
2018-07-20T08:26:00.644Z,4.47
2018-07-20T08:28:04.909Z,4.55
2018-07-20T08:30:09.464Z,4.10
2018-07-20T08:32:13.085Z,3.77
2018-07-20T08:34:17.782Z,4.10
2018-07-20T08:36:21.480Z,4.03
2018-07-20T08:38:26.909Z,4.30
2018-07-20T08:40:30.780Z,3.45
2018-07-20T08:42:35.132Z,4.03
2018-07-20T08:44:45.518Z,3.70
2018-07-20T08:46:49.634Z,3.98
2018-07-20T08:48:53.262Z,3.70
2018-07-20T08:50:56.924Z,4.03
2018-07-20T08:53:00.531Z,4.20
2018-07-20T08:55:04.919Z,3.83
2018-07-20T08:57:09.393Z,3.40
2018-07-20T08:59:13.790Z,4.08
2018-07-20T09:01:17.729Z,4.30
2018-07-20T09:03:22.556Z,4.00
2018-07-20T09:05:26.845Z,3.15
2018-07-20T09:07:31.989Z,3.83
2018-07-20T09:09:42.680Z,3.37
2018-07-20T09:11:46.829Z,3.60
2018-07-20T09:13:51.096Z,3.45
2018-07-20T09:15:55.386Z,3.85
2018-07-20T09:17:59.973Z,3.22
2018-07-20T09:20:04.292Z,3.35
2018-07-20T09:22:08.495Z,3.12
2018-07-20T09:24:12.752Z,3.67
2018-07-20T09:26:17.258Z,2.87
2018-07-20T09:28:21.449Z,3.37
2018-07-20T09:30:25.823Z,3.20
2018-07-20T09:32:29.951Z,3.22
2018-07-20T09:34:34.460Z,3.02
2018-07-20T09:36:38.634Z,3.10
2018-07-20T09:38:43.360Z,3.05
2018-07-20T09:40:47.753Z,3.58
2018-07-20T09:42:51.917Z,3.20
2018-07-20T09:44:56.267Z,2.87
2018-07-20T09:47:00.484Z,3.33
2018-07-20T09:49:04.393Z,3.20
2018-07-20T09:51:08.067Z,3.37
2018-07-20T09:53:11.784Z,3.17
2018-07-20T09:55:15.839Z,3.52
2018-07-20T09:57:20.426Z,3.60
2018-07-20T09:59:24.333Z,3.90
2018-07-20T10:01:28.803Z,3.40
2018-07-20T10:03:32.899Z,3.52
2018-07-20T10:05:37.371Z,3.40
2018-07-20T10:07:41.624Z,3.22
2018-07-20T10:09:46.313Z,3.40
2018-07-20T10:11:52.580Z,3.45
2018-07-20T10:13:57.446Z,3.35
2018-07-20T10:16:01.981Z,3.60
2018-07-20T10:18:06.956Z,2.98
2018-07-20T10:20:12.589Z,3.65
2018-07-20T10:22:16.755Z,3.75
2018-07-20T10:24:23.651Z,3.37
2018-07-20T10:26:27.486Z,3.10
2018-07-20T10:28:33.194Z,3.20
2018-07-20T10:30:36.972Z,3.47
2018-07-20T10:32:42.134Z,3.20
2018-07-20T10:34:46.675Z,3.02
2018-07-20T10:36:51.470Z,3.25
2018-07-20T10:38:56.012Z,3.17
2018-07-20T10:41:03.695Z,3.30
2018-07-20T10:43:08.679Z,3.20
2018-07-20T10:45:13.063Z,3.02
2018-07-20T10:47:17.243Z,3.02
2018-07-20T10:49:21.541Z,3.60
2018-07-20T10:51:25.233Z,3.35
2018-07-20T10:53:28.819Z,3.22
2018-07-20T10:55:32.688Z,3.47
2018-07-20T10:57:36.367Z,3.47
2018-07-20T10:59:40.908Z,3.20
2018-07-20T11:01:45.302Z,3.08
2018-07-20T11:03:49.646Z,3.05
2018-07-20T11:05:53.865Z,3.30
2018-07-20T11:07:57.646Z,3.25
2018-07-20T11:10:02.206Z,3.00
2018-07-20T11:12:06.859Z,3.37
2018-07-20T11:14:11.257Z,3.50
2018-07-20T11:16:14.854Z,3.30
2018-07-20T11:18:18.906Z,3.10
2018-07-20T11:20:23.459Z,3.10
2018-07-20T11:22:27.839Z,3.00
2018-07-20T11:24:31.282Z,2.90
2018-07-20T11:26:34.877Z,3.67
2018-07-20T11:28:38.417Z,3.17
2018-07-20T11:30:42.015Z,3.20
2018-07-20T11:32:45.760Z,2.77
2018-07-20T11:34:49.285Z,3.17
2018-07-20T11:36:52.842Z,3.30
2018-07-20T11:38:57.716Z,3.47
2018-07-20T11:41:01.321Z,3.25
2018-07-20T11:43:05.848Z,3.10
2018-07-20T11:45:09.436Z,3.22
2018-07-20T11:47:13.563Z,3.60
2018-07-20T11:49:17.167Z,3.30
2018-07-20T11:51:20.784Z,3.40
2018-07-20T11:53:24.354Z,3.27
2018-07-20T11:55:28.156Z,3.07
2018-07-20T11:57:31.687Z,3.20
2018-07-20T11:59:35.257Z,3.13
2018-07-20T12:01:38.845Z,3.20
2018-07-20T12:03:42.682Z,3.57
2018-07-20T12:05:46.280Z,3.27
2018-07-20T12:07:49.939Z,3.23
2018-07-20T12:09:53.588Z,3.17
2018-07-20T12:11:57.283Z,3.30
2018-07-20T12:14:00.959Z,2.90
2018-07-20T12:16:04.589Z,3.47
2018-07-20T12:18:08.322Z,3.13
2018-07-20T12:20:12.392Z,3.40
2018-07-20T12:22:15.998Z,3.23
2018-07-20T12:24:19.717Z,3.37
2018-07-20T12:26:23.493Z,3.10
2018-07-20T12:28:27.219Z,3.00
2018-07-20T12:30:30.792Z,3.20
2018-07-20T12:32:34.904Z,3.20
2018-07-20T12:34:38.524Z,3.13
2018-07-20T12:36:42.097Z,3.17
2018-07-20T12:38:45.679Z,3.30
2018-07-20T12:40:49.257Z,2.97
2018-07-20T12:42:52.807Z,3.27
2018-07-20T12:44:56.418Z,3.10
2018-07-20T12:47:00.060Z,3.77
2018-07-20T12:49:03.630Z,3.27
2018-07-20T12:51:14.188Z,3.50
2018-07-20T12:53:17.737Z,3.17
2018-07-20T12:55:21.267Z,3.40
2018-07-20T12:57:25.015Z,3.30
2018-07-20T12:59:28.528Z,3.60
2018-07-20T13:01:32.128Z,3.63
2018-07-20T13:03:35.717Z,3.30
2018-07-20T13:05:40.095Z,3.13
2018-07-20T13:07:43.633Z,3.20
2018-07-20T13:09:47.898Z,3.13
2018-07-20T13:11:51.515Z,3.40
2018-07-20T13:13:55.215Z,3.30
2018-07-20T13:15:58.790Z,3.63
2018-07-20T13:18:02.358Z,3.10
2018-07-20T13:20:06.237Z,3.53
2018-07-20T13:22:10.127Z,3.40
2018-07-20T13:24:14.089Z,3.80
2018-07-20T13:26:17.722Z,3.40
2018-07-20T13:28:21.564Z,3.93
2018-07-20T13:30:25.132Z,3.77
2018-07-20T13:32:28.695Z,3.47
2018-07-20T13:34:32.926Z,3.40
2018-07-20T13:36:36.494Z,3.50
2018-07-20T13:38:40.206Z,3.47
2018-07-20T13:40:43.733Z,3.23
2018-07-20T13:42:47.261Z,3.77
2018-07-20T13:44:50.916Z,3.37
2018-07-20T13:46:54.488Z,3.33
2018-07-20T13:48:58.055Z,3.10
2018-07-20T13:51:01.657Z,3.37
2018-07-20T13:53:05.689Z,3.07
2018-07-20T13:55:09.424Z,3.40
2018-07-20T13:57:13.401Z,3.10
2018-07-20T13:59:16.969Z,3.30
2018-07-20T14:01:20.552Z,3.17
2018-07-20T14:03:24.103Z,3.07
2018-07-20T14:05:27.667Z,3.37
2018-07-20T14:07:31.237Z,3.00
2018-07-20T14:09:34.788Z,3.57
2018-07-20T14:11:38.849Z,3.60
2018-07-20T14:13:42.810Z,2.93
2018-07-20T14:15:46.423Z,3.30
2018-07-20T14:17:50.005Z,3.33
2018-07-20T14:19:53.857Z,3.40
2018-07-20T14:21:57.433Z,3.07
2018-07-20T14:24:01.040Z,3.50
2018-07-20T14:26:04.748Z,3.23
2018-07-20T14:28:08.524Z,3.70
2018-07-20T14:30:12.081Z,3.37
2018-07-20T14:32:15.675Z,3.13
2018-07-20T14:34:19.223Z,3.80
2018-07-20T14:36:22.853Z,3.20
2018-07-20T14:38:26.436Z,3.50
2018-07-20T14:40:30.111Z,3.47
2018-07-20T14:42:33.719Z,3.80
2018-07-20T14:44:37.470Z,3.63
2018-07-20T14:46:41.080Z,3.43
2018-07-20T14:48:44.748Z,3.53
2018-07-20T14:50:48.516Z,3.47
2018-07-20T14:52:52.080Z,3.60
2018-07-20T14:54:55.595Z,3.53
2018-07-20T14:56:59.371Z,3.57
2018-07-20T14:59:02.942Z,3.57
2018-07-20T15:01:06.543Z,3.37
2018-07-20T15:03:10.094Z,3.37
2018-07-20T15:05:13.733Z,3.30
2018-07-20T15:07:17.370Z,3.27
2018-07-20T15:09:20.961Z,3.77
2018-07-20T15:11:24.521Z,3.50
2018-07-20T15:13:28.166Z,3.50
2018-07-20T15:15:31.722Z,4.13
2018-07-20T15:17:35.283Z,3.83
2018-07-20T15:19:38.773Z,3.47
2018-07-20T15:21:42.301Z,3.60
2018-07-20T15:23:45.816Z,3.70
2018-07-20T15:25:49.362Z,3.40
2018-07-20T15:27:52.963Z,3.20
2018-07-20T15:29:56.496Z,3.57
2018-07-20T15:32:00.028Z,3.67
2018-07-20T15:34:03.543Z,3.87
2018-07-20T15:36:07.529Z,3.40
2018-07-20T15:38:11.251Z,3.80
2018-07-20T15:40:14.919Z,3.97
2018-07-20T15:42:18.806Z,3.80
2018-07-20T15:44:22.262Z,3.27
2018-07-20T15:46:25.873Z,3.70
2018-07-20T15:48:29.599Z,3.57
2018-07-20T15:50:33.482Z,3.67
2018-07-20T15:54:40.595Z,3.50
2018-07-20T15:56:44.089Z,3.83
2018-07-20T15:58:47.630Z,3.80
2018-07-20T16:00:51.197Z,3.67
2018-07-20T16:02:55.168Z,3.73
2018-07-20T16:04:59.024Z,4.03
2018-07-20T16:07:02.538Z,3.60
2018-07-20T16:09:08.692Z,3.90
2018-07-20T16:11:12.227Z,3.50
2018-07-20T16:13:16.156Z,4.00
2018-07-20T16:15:19.663Z,4.23
2018-07-20T16:17:23.220Z,3.30
2018-07-20T16:19:26.745Z,3.53
2018-07-20T16:21:30.462Z,4.10
2018-07-20T16:23:33.997Z,3.70
2018-07-20T16:25:40.693Z,4.00
2018-07-20T16:27:44.347Z,3.60
2018-07-20T16:29:47.848Z,4.10
2018-07-20T16:31:51.403Z,4.00
2018-07-20T16:33:54.947Z,4.20
2018-07-20T16:35:58.454Z,3.90
2018-07-20T16:38:02.140Z,3.77
2018-07-20T16:40:06.080Z,4.30
2018-07-20T16:42:09.911Z,3.50
2018-07-20T16:44:13.445Z,4.10
2018-07-20T16:46:17.008Z,4.20
2018-07-20T16:48:20.519Z,3.80
2018-07-20T16:50:30.836Z,4.30
2018-07-20T16:52:34.356Z,3.80
2018-07-20T16:54:40.884Z,3.60
2018-07-20T16:56:44.776Z,3.93
2018-07-20T16:58:48.289Z,4.43
2018-07-20T17:00:52.188Z,3.97
2018-07-20T17:02:55.737Z,4.00
2018-07-20T17:04:59.255Z,4.10
2018-07-20T17:07:02.776Z,4.07
2018-07-20T17:09:09.327Z,4.10
2018-07-20T17:11:12.846Z,3.83
2018-07-20T17:13:16.380Z,4.40
2018-07-20T17:15:20.200Z,3.50
2018-07-20T17:17:23.727Z,3.57
2018-07-20T17:19:27.247Z,4.10
2018-07-20T17:21:31.117Z,4.63
2018-07-20T17:23:34.717Z,4.27
2018-07-20T17:25:38.299Z,4.33
2018-07-20T17:27:41.836Z,4.47
2018-07-20T17:29:45.404Z,3.90
2018-07-20T17:31:48.977Z,4.10
2018-07-20T17:33:52.521Z,4.10
2018-07-20T17:35:56.403Z,3.93
2018-07-20T17:37:59.964Z,4.27
2018-07-20T17:40:03.505Z,4.27
2018-07-20T17:42:07.501Z,4.57
2018-07-20T17:44:11.252Z,4.50
2018-07-20T17:46:14.806Z,4.10
2018-07-20T17:48:18.417Z,3.80
2018-07-20T17:50:21.971Z,4.40
2018-07-20T17:52:25.465Z,3.80
2018-07-20T17:54:29.028Z,3.93
2018-07-20T17:56:32.576Z,3.83
2018-07-20T17:58:36.874Z,3.90
2018-07-20T18:00:40.741Z,4.23
2018-07-20T18:02:44.729Z,4.20
2018-07-20T18:04:48.312Z,3.87
2018-07-20T18:06:51.823Z,4.17
2018-07-20T18:08:55.353Z,4.20
2018-07-20T18:10:58.888Z,4.90
2018-07-20T18:13:02.377Z,4.20
2018-07-20T18:15:06.180Z,4.50
2018-07-20T18:17:10.019Z,4.57
2018-07-20T18:19:13.569Z,4.70
2018-07-20T18:21:17.109Z,4.33
2018-07-20T18:23:20.608Z,4.57
2018-07-20T18:25:24.150Z,4.10
2018-07-20T18:27:27.625Z,5.57
2018-07-20T18:29:31.295Z,5.57
2018-07-20T18:31:34.819Z,4.87
2018-07-20T18:33:38.441Z,5.20
2018-07-20T18:35:42.153Z,4.80
2018-07-20T18:37:46.066Z,4.33
2018-07-20T18:39:49.598Z,4.20
2018-07-20T18:41:53.319Z,4.13
2018-07-20T18:43:57.205Z,4.13
2018-07-20T18:46:00.764Z,4.43
2018-07-20T18:48:04.328Z,4.33
2018-07-20T18:50:08.940Z,3.60
2018-07-20T18:52:12.476Z,3.97
2018-07-20T18:54:16.388Z,4.57
2018-07-20T18:56:19.910Z,4.27
2018-07-20T18:58:23.424Z,4.17
2018-07-20T19:00:26.988Z,4.30
2018-07-20T19:02:30.525Z,4.43
2018-07-20T19:04:34.420Z,4.13
2018-07-20T19:06:37.993Z,5.10
2018-07-20T19:08:41.484Z,5.20
2018-07-20T19:10:45.057Z,4.67
2018-07-20T19:12:48.836Z,5.07
2018-07-20T19:14:52.360Z,5.63
2018-07-20T19:16:56.180Z,4.70
2018-07-20T19:18:59.888Z,5.00
2018-07-20T19:21:03.427Z,5.37
2018-07-20T19:23:06.929Z,5.27
2018-07-20T19:25:10.470Z,5.13
2018-07-20T19:27:14.203Z,5.40
2018-07-20T19:29:17.734Z,4.90
2018-07-20T19:31:21.295Z,4.87
2018-07-20T19:33:24.763Z,4.60
2018-07-20T19:35:28.359Z,4.70
2018-07-20T19:37:31.922Z,4.83
2018-07-20T19:39:35.473Z,5.17
2018-07-20T19:41:39.186Z,4.83
2018-07-20T19:43:42.674Z,5.07
2018-07-20T19:45:46.272Z,5.23
2018-07-20T19:47:49.802Z,5.97
2018-07-20T19:49:53.296Z,6.07
2018-07-20T19:51:56.789Z,6.10
2018-07-20T19:54:00.288Z,5.30
2018-07-20T19:56:03.843Z,5.93
2018-07-20T19:58:07.716Z,6.10
2018-07-20T20:00:11.460Z,6.50
2018-07-20T20:02:15.001Z,5.97
2018-07-20T20:04:18.568Z,5.97
2018-07-20T20:06:22.258Z,5.50
2018-07-20T20:08:25.807Z,6.00
2018-07-20T20:10:29.372Z,6.37
2018-07-20T20:12:32.901Z,6.67
2018-07-20T20:14:36.392Z,6.40
2018-07-20T20:16:39.971Z,6.53
2018-07-20T20:18:43.518Z,5.93
2018-07-20T20:20:47.028Z,5.67
2018-07-20T20:22:50.565Z,5.87
2018-07-20T20:24:54.128Z,5.57
2018-07-20T20:26:57.677Z,5.60
2018-07-20T20:29:01.201Z,5.70
2018-07-20T20:31:05.104Z,5.57
2018-07-20T20:33:08.674Z,5.70
2018-07-20T20:35:12.180Z,6.27
2018-07-20T20:37:15.770Z,6.23
2018-07-20T20:39:19.268Z,5.50
2018-07-20T20:41:22.860Z,5.90
2018-07-20T20:43:26.772Z,6.13
2018-07-20T20:45:30.329Z,6.37
2018-07-20T20:47:33.919Z,6.00
2018-07-20T20:49:37.496Z,6.60
2018-07-20T20:51:41.049Z,6.20
2018-07-20T20:53:44.992Z,6.17
2018-07-20T20:55:48.518Z,6.20
2018-07-20T20:57:52.068Z,6.40
2018-07-20T20:59:55.619Z,6.10
2018-07-20T21:01:59.148Z,5.87
2018-07-20T21:04:02.725Z,5.83
2018-07-20T21:06:06.702Z,6.00
2018-07-20T21:08:10.667Z,7.23
2018-07-20T21:10:14.175Z,5.83
2018-07-20T21:12:17.701Z,6.03
2018-07-20T21:14:21.257Z,5.93
2018-07-20T21:16:25.229Z,6.17
2018-07-20T21:18:28.775Z,6.40
2018-07-20T21:20:32.255Z,6.17
2018-07-20T21:22:35.748Z,6.57
2018-07-20T21:24:39.385Z,6.77
2018-07-20T21:26:42.926Z,5.83
2018-07-20T21:28:46.452Z,5.60
2018-07-20T21:30:49.993Z,6.20
2018-07-20T21:32:53.556Z,5.37
2018-07-20T21:34:57.083Z,5.63
2018-07-20T21:37:00.608Z,6.67
2018-07-20T21:39:06.355Z,6.33
2018-07-20T21:41:09.945Z,6.50
2018-07-20T21:43:13.426Z,7.07
2018-07-20T21:45:17.021Z,7.27
2018-07-20T21:47:21.088Z,6.57
2018-07-20T21:49:24.623Z,6.73
2018-07-20T21:51:28.092Z,7.40
2018-07-20T21:53:31.626Z,7.23
2018-07-20T21:55:35.167Z,6.87
2018-07-20T21:57:39.104Z,7.63
2018-07-20T21:59:42.649Z,7.00
2018-07-20T22:01:46.226Z,6.57
2018-07-20T22:03:49.817Z,6.87
2018-07-20T22:05:53.412Z,6.50
2018-07-20T22:07:56.941Z,6.13
2018-07-20T22:10:00.486Z,6.60
2018-07-20T22:12:04.045Z,6.17
2018-07-20T22:14:07.907Z,6.23
2018-07-20T22:16:11.445Z,7.60
2018-07-20T22:18:14.992Z,7.27
2018-07-20T22:20:18.541Z,6.83
2018-07-20T22:22:22.030Z,6.40
2018-07-20T22:24:25.559Z,6.73
2018-07-20T22:26:29.153Z,6.33
2018-07-20T22:28:32.643Z,5.97
2018-07-20T22:30:36.205Z,6.03
2018-07-20T22:32:39.731Z,6.40
2018-07-20T22:34:43.283Z,5.97
2018-07-20T22:36:46.797Z,5.43
2018-07-20T22:38:50.252Z,7.23
2018-07-20T22:40:53.742Z,5.80
2018-07-20T22:42:57.268Z,6.10
2018-07-20T22:45:00.826Z,6.53
2018-07-20T22:47:04.345Z,6.30
2018-07-20T22:49:08.252Z,6.73
2018-07-20T22:51:11.731Z,6.70
2018-07-20T22:53:15.445Z,6.17
2018-07-20T22:55:18.945Z,5.70
2018-07-20T22:57:22.469Z,6.53
2018-07-20T22:59:26.392Z,6.20
2018-07-20T23:01:29.893Z,6.80
2018-07-20T23:03:33.354Z,6.30
2018-07-20T23:05:36.930Z,6.57
2018-07-20T23:07:40.593Z,6.70
2018-07-20T23:09:44.256Z,6.87
2018-07-20T23:11:48.121Z,6.60
2018-07-20T23:13:51.656Z,6.87
2018-07-20T23:16:01.934Z,7.40
2018-07-20T23:18:06.088Z,6.40
2018-07-20T23:20:09.605Z,7.30
2018-07-20T23:22:13.145Z,7.60
2018-07-20T23:24:16.736Z,6.63
2018-07-20T23:26:21.937Z,6.53
2018-07-20T23:28:25.484Z,6.47
2018-07-20T23:30:29.010Z,6.53
2018-07-20T23:32:32.558Z,6.80
2018-07-20T23:34:36.096Z,6.93
2018-07-20T23:36:39.579Z,7.17
2018-07-20T23:38:43.562Z,6.77
2018-07-20T23:40:47.090Z,6.27
2018-07-20T23:42:50.654Z,7.10
2018-07-20T23:44:54.256Z,6.93
2018-07-20T23:46:57.796Z,7.33
2018-07-20T23:49:01.589Z,6.50
2018-07-20T23:51:05.916Z,7.20
2018-07-20T23:53:09.464Z,7.03
2018-07-20T23:55:13.354Z,7.17
2018-07-20T23:57:16.911Z,7.10
2018-07-20T23:59:20.445Z,6.93
